sensor_id;sensor_type;location;lat;lon;timestamp;pressure;altitude;pressure_sealevel;temperature;humidity
31346;BME280;21711;49.708;18.568;2024-02-21T00:01:27;98037.94;;;5.72;100.00
31346;BME280;21711;49.708;18.568;2024-02-21T00:03:54;98030.84;;;5.72;100.00
31346;BME280;21711;49.708;18.568;2024-02-21T00:06:22;98032.69;;;5.72;100.00
31346;BME280;21711;49.708;18.568;2024-02-21T00:08:49;98031.91;;;5.52;100.00
31346;BME280;21711;49.708;18.568;2024-02-21T00:11:17;98039.34;;;5.56;100.00
31346;BME280;21711;49.708;18.568;2024-02-21T00:13:44;98028.94;;;5.49;100.00
31346;BME280;21711;49.708;18.568;2024-02-21T00:16:12;98025.56;;;5.42;100.00
31346;BME280;21711;49.708;18.568;2024-02-21T00:18:40;98020.72;;;5.26;100.00
31346;BME280;21711;49.708;18.568;2024-02-21T00:21:08;98020.44;;;5.35;100.00
31346;BME280;21711;49.708;18.568;2024-02-21T00:23:35;98017.22;;;5.33;100.00
31346;BME280;21711;49.708;18.568;2024-02-21T00:26:03;98009.13;;;5.34;100.00
31346;BME280;21711;49.708;18.568;2024-02-21T00:28:31;98006.44;;;5.22;100.00
31346;BME280;21711;49.708;18.568;2024-02-21T00:30:58;98019.91;;;5.26;100.00
31346;BME280;21711;49.708;18.568;2024-02-21T00:33:26;98013.06;;;5.25;100.00
31346;BME280;21711;49.708;18.568;2024-02-21T00:35:53;98018.75;;;5.22;100.00
31346;BME280;21711;49.708;18.568;2024-02-21T00:38:20;98008.47;;;5.20;100.00
31346;BME280;21711;49.708;18.568;2024-02-21T00:40:48;98007.81;;;5.25;100.00
31346;BME280;21711;49.708;18.568;2024-02-21T00:43:16;98001.63;;;5.38;100.00
31346;BME280;21711;49.708;18.568;2024-02-21T00:45:43;98002.84;;;5.17;100.00
31346;BME280;21711;49.708;18.568;2024-02-21T00:48:10;97996.16;;;5.02;100.00
31346;BME280;21711;49.708;18.568;2024-02-21T00:50:38;97995.59;;;5.00;100.00
31346;BME280;21711;49.708;18.568;2024-02-21T00:53:05;97997.81;;;4.96;100.00
31346;BME280;21711;49.708;18.568;2024-02-21T00:55:33;97994.28;;;5.09;100.00
31346;BME280;21711;49.708;18.568;2024-02-21T00:58:01;97991.72;;;5.21;100.00
31346;BME280;21711;49.708;18.568;2024-02-21T01:00:28;97988.00;;;5.29;100.00
31346;BME280;21711;49.708;18.568;2024-02-21T01:02:55;97993.25;;;5.29;100.00
31346;BME280;21711;49.708;18.568;2024-02-21T01:05:22;97992.91;;;5.25;100.00
31346;BME280;21711;49.708;18.568;2024-02-21T01:07:50;97989.19;;;5.15;100.00
31346;BME280;21711;49.708;18.568;2024-02-21T01:10:17;97990.56;;;5.17;100.00
31346;BME280;21711;49.708;18.568;2024-02-21T01:12:44;97985.16;;;5.31;100.00
31346;BME280;21711;49.708;18.568;2024-02-21T01:15:12;97983.59;;;5.42;100.00
31346;BME280;21711;49.708;18.568;2024-02-21T01:17:39;97982.53;;;5.31;100.00
31346;BME280;21711;49.708;18.568;2024-02-21T01:20:08;97981.72;;;5.30;100.00
31346;BME280;21711;49.708;18.568;2024-02-21T01:22:36;97986.59;;;5.45;100.00
31346;BME280;21711;49.708;18.568;2024-02-21T01:25:03;97972.97;;;5.36;100.00
31346;BME280;21711;49.708;18.568;2024-02-21T01:27:30;97970.28;;;5.24;100.00
31346;BME280;21711;49.708;18.568;2024-02-21T01:29:58;97973.91;;;5.42;100.00
31346;BME280;21711;49.708;18.568;2024-02-21T01:32:25;97972.41;;;5.34;100.00
31346;BME280;21711;49.708;18.568;2024-02-21T01:34:52;97968.56;;;5.18;100.00
31346;BME280;21711;49.708;18.568;2024-02-21T01:37:20;97973.56;;;5.38;100.00
31346;BME280;21711;49.708;18.568;2024-02-21T01:39:47;97966.88;;;5.43;100.00
31346;BME280;21711;49.708;18.568;2024-02-21T01:42:16;97966.66;;;5.44;100.00
31346;BME280;21711;49.708;18.568;2024-02-21T01:44:44;97973.84;;;5.49;100.00
31346;BME280;21711;49.708;18.568;2024-02-21T01:47:12;97961.09;;;5.34;100.00
31346;BME280;21711;49.708;18.568;2024-02-21T01:49:41;97966.06;;;5.42;100.00
31346;BME280;21711;49.708;18.568;2024-02-21T01:52:09;97959.72;;;5.31;100.00
31346;BME280;21711;49.708;18.568;2024-02-21T01:54:38;97950.41;;;5.35;100.00
31346;BME280;21711;49.708;18.568;2024-02-21T01:57:06;97944.78;;;5.32;100.00
31346;BME280;21711;49.708;18.568;2024-02-21T01:59:34;97960.19;;;5.28;100.00
31346;BME280;21711;49.708;18.568;2024-02-21T02:02:03;97953.94;;;5.10;100.00
31346;BME280;21711;49.708;18.568;2024-02-21T02:04:30;97959.59;;;5.26;100.00
31346;BME280;21711;49.708;18.568;2024-02-21T02:07:00;97956.19;;;5.25;100.00
31346;BME280;21711;49.708;18.568;2024-02-21T02:09:30;97946.13;;;5.22;100.00
31346;BME280;21711;49.708;18.568;2024-02-21T02:11:57;97952.53;;;5.26;100.00
31346;BME280;21711;49.708;18.568;2024-02-21T02:14:26;97943.38;;;5.17;100.00
31346;BME280;21711;49.708;18.568;2024-02-21T02:16:53;97937.59;;;5.08;100.00
31346;BME280;21711;49.708;18.568;2024-02-21T02:19:21;97934.19;;;5.08;100.00
31346;BME280;21711;49.708;18.568;2024-02-21T02:21:56;97928.06;;;4.95;100.00
31346;BME280;21711;49.708;18.568;2024-02-21T02:24:26;97934.47;;;4.81;100.00
31346;BME280;21711;49.708;18.568;2024-02-21T02:26:53;97933.16;;;4.71;100.00
31346;BME280;21711;49.708;18.568;2024-02-21T02:29:21;97932.44;;;4.45;100.00
31346;BME280;21711;49.708;18.568;2024-02-21T02:31:49;97923.09;;;4.31;100.00
31346;BME280;21711;49.708;18.568;2024-02-21T02:34:17;97923.34;;;4.23;100.00
31346;BME280;21711;49.708;18.568;2024-02-21T02:36:44;97920.44;;;4.12;100.00
31346;BME280;21711;49.708;18.568;2024-02-21T02:39:11;97914.00;;;4.08;100.00
31346;BME280;21711;49.708;18.568;2024-02-21T02:41:39;97917.34;;;4.15;100.00
31346;BME280;21711;49.708;18.568;2024-02-21T02:44:06;97902.09;;;4.12;100.00
31346;BME280;21711;49.708;18.568;2024-02-21T02:46:33;97907.59;;;4.29;100.00
31346;BME280;21711;49.708;18.568;2024-02-21T02:49:01;97898.94;;;4.47;100.00
31346;BME280;21711;49.708;18.568;2024-02-21T02:51:29;97898.81;;;4.61;100.00
31346;BME280;21711;49.708;18.568;2024-02-21T02:53:56;97899.09;;;4.71;100.00
31346;BME280;21711;49.708;18.568;2024-02-21T02:56:24;97899.69;;;4.73;100.00
31346;BME280;21711;49.708;18.568;2024-02-21T02:58:51;97903.56;;;4.71;100.00
31346;BME280;21711;49.708;18.568;2024-02-21T03:01:19;97908.72;;;4.59;100.00
31346;BME280;21711;49.708;18.568;2024-02-21T03:03:46;97905.22;;;4.46;100.00
31346;BME280;21711;49.708;18.568;2024-02-21T03:06:14;97907.09;;;4.58;100.00
31346;BME280;21711;49.708;18.568;2024-02-21T03:08:42;97901.28;;;4.74;100.00
31346;BME280;21711;49.708;18.568;2024-02-21T03:11:10;97900.56;;;4.86;100.00
31346;BME280;21711;49.708;18.568;2024-02-21T03:13:38;97897.84;;;4.93;100.00
31346;BME280;21711;49.708;18.568;2024-02-21T03:16:06;97898.88;;;5.10;100.00
31346;BME280;21711;49.708;18.568;2024-02-21T03:18:33;97904.81;;;5.18;100.00
31346;BME280;21711;49.708;18.568;2024-02-21T03:21:00;97905.91;;;5.10;100.00
31346;BME280;21711;49.708;18.568;2024-02-21T03:23:28;97915.69;;;5.03;100.00
31346;BME280;21711;49.708;18.568;2024-02-21T03:25:55;97908.56;;;4.91;100.00
31346;BME280;21711;49.708;18.568;2024-02-21T03:28:23;97905.22;;;4.84;100.00
31346;BME280;21711;49.708;18.568;2024-02-21T03:30:50;97908.63;;;4.84;100.00
31346;BME280;21711;49.708;18.568;2024-02-21T03:33:18;97900.13;;;4.89;100.00
31346;BME280;21711;49.708;18.568;2024-02-21T03:35:47;97908.94;;;4.95;100.00
31346;BME280;21711;49.708;18.568;2024-02-21T03:38:14;97901.44;;;4.98;100.00
31346;BME280;21711;49.708;18.568;2024-02-21T03:40:42;97898.47;;;4.95;100.00
31346;BME280;21711;49.708;18.568;2024-02-21T03:43:09;97905.84;;;4.98;100.00
31346;BME280;21711;49.708;18.568;2024-02-21T03:45:37;97900.75;;;5.03;100.00
31346;BME280;21711;49.708;18.568;2024-02-21T03:48:05;97892.97;;;4.96;100.00
31346;BME280;21711;49.708;18.568;2024-02-21T03:50:32;97898.06;;;4.91;100.00
31346;BME280;21711;49.708;18.568;2024-02-21T03:53:00;97892.91;;;4.84;100.00
31346;BME280;21711;49.708;18.568;2024-02-21T03:55:27;97888.97;;;4.75;100.00
31346;BME280;21711;49.708;18.568;2024-02-21T03:57:55;97881.94;;;4.57;100.00
31346;BME280;21711;49.708;18.568;2024-02-21T04:00:23;97879.31;;;4.57;100.00
31346;BME280;21711;49.708;18.568;2024-02-21T04:02:51;97895.31;;;4.67;100.00
31346;BME280;21711;49.708;18.568;2024-02-21T04:05:18;97891.69;;;4.50;100.00
31346;BME280;21711;49.708;18.568;2024-02-21T04:07:46;97898.47;;;4.57;100.00
31346;BME280;21711;49.708;18.568;2024-02-21T04:10:13;97899.25;;;4.58;100.00
31346;BME280;21711;49.708;18.568;2024-02-21T04:12:41;97891.63;;;4.56;100.00
31346;BME280;21711;49.708;18.568;2024-02-21T04:15:08;97886.06;;;4.46;100.00
31346;BME280;21711;49.708;18.568;2024-02-21T04:17:37;97894.66;;;4.53;100.00
31346;BME280;21711;49.708;18.568;2024-02-21T04:20:05;97895.56;;;4.66;100.00
31346;BME280;21711;49.708;18.568;2024-02-21T04:22:35;97883.53;;;4.58;100.00
31346;BME280;21711;49.708;18.568;2024-02-21T04:25:03;97885.84;;;4.66;100.00
31346;BME280;21711;49.708;18.568;2024-02-21T04:27:30;97890.59;;;4.76;100.00
31346;BME280;21711;49.708;18.568;2024-02-21T04:29:57;97887.09;;;4.82;100.00
31346;BME280;21711;49.708;18.568;2024-02-21T04:32:25;97884.13;;;4.79;100.00
31346;BME280;21711;49.708;18.568;2024-02-21T04:34:54;97893.44;;;4.74;100.00
31346;BME280;21711;49.708;18.568;2024-02-21T04:37:22;97891.53;;;4.82;100.00
31346;BME280;21711;49.708;18.568;2024-02-21T04:39:50;97888.13;;;4.81;100.00
31346;BME280;21711;49.708;18.568;2024-02-21T04:42:18;97886.88;;;4.84;100.00
31346;BME280;21711;49.708;18.568;2024-02-21T04:44:45;97883.44;;;4.83;100.00
31346;BME280;21711;49.708;18.568;2024-02-21T04:47:12;97876.53;;;4.70;100.00
31346;BME280;21711;49.708;18.568;2024-02-21T04:49:40;97870.28;;;4.71;100.00
31346;BME280;21711;49.708;18.568;2024-02-21T04:52:07;97872.41;;;4.81;100.00
31346;BME280;21711;49.708;18.568;2024-02-21T04:54:35;97876.69;;;4.76;100.00
31346;BME280;21711;49.708;18.568;2024-02-21T04:57:02;97870.22;;;4.78;100.00
31346;BME280;21711;49.708;18.568;2024-02-21T04:59:30;97872.69;;;4.73;100.00
31346;BME280;21711;49.708;18.568;2024-02-21T05:01:57;97872.25;;;4.76;100.00
31346;BME280;21711;49.708;18.568;2024-02-21T05:04:25;97875.09;;;4.74;100.00
31346;BME280;21711;49.708;18.568;2024-02-21T05:06:53;97867.94;;;4.82;100.00
31346;BME280;21711;49.708;18.568;2024-02-21T05:09:21;97863.50;;;4.82;100.00
31346;BME280;21711;49.708;18.568;2024-02-21T05:11:48;97868.63;;;4.77;100.00
31346;BME280;21711;49.708;18.568;2024-02-21T05:14:16;97862.41;;;4.71;100.00
31346;BME280;21711;49.708;18.568;2024-02-21T05:16:43;97864.25;;;4.71;100.00
31346;BME280;21711;49.708;18.568;2024-02-21T05:19:10;97861.19;;;4.55;100.00
31346;BME280;21711;49.708;18.568;2024-02-21T05:21:38;97863.81;;;4.55;100.00
31346;BME280;21711;49.708;18.568;2024-02-21T05:24:05;97861.19;;;4.55;100.00
31346;BME280;21711;49.708;18.568;2024-02-21T05:26:33;97864.81;;;4.54;100.00
31346;BME280;21711;49.708;18.568;2024-02-21T05:29:00;97866.75;;;4.66;100.00
31346;BME280;21711;49.708;18.568;2024-02-21T05:34:21;97859.50;;;4.61;100.00
31346;BME280;21711;49.708;18.568;2024-02-21T05:36:49;97855.72;;;4.57;100.00
31346;BME280;21711;49.708;18.568;2024-02-21T05:39:20;97852.41;;;4.50;100.00
31346;BME280;21711;49.708;18.568;2024-02-21T05:41:49;97855.94;;;4.55;100.00
31346;BME280;21711;49.708;18.568;2024-02-21T05:44:18;97853.09;;;4.57;100.00
31346;BME280;21711;49.708;18.568;2024-02-21T05:46:46;97862.22;;;4.54;100.00
31346;BME280;21711;49.708;18.568;2024-02-21T05:49:14;97860.19;;;4.56;100.00
31346;BME280;21711;49.708;18.568;2024-02-21T05:51:42;97856.19;;;4.35;100.00
31346;BME280;21711;49.708;18.568;2024-02-21T05:54:09;97859.22;;;4.32;100.00
31346;BME280;21711;49.708;18.568;2024-02-21T05:56:36;97853.03;;;4.45;100.00
31346;BME280;21711;49.708;18.568;2024-02-21T05:59:04;97850.06;;;4.41;100.00
31346;BME280;21711;49.708;18.568;2024-02-21T06:01:32;97856.09;;;4.42;100.00
31346;BME280;21711;49.708;18.568;2024-02-21T06:03:59;97855.72;;;4.57;100.00
31346;BME280;21711;49.708;18.568;2024-02-21T06:06:27;97861.56;;;4.78;100.00
31346;BME280;21711;49.708;18.568;2024-02-21T06:08:54;97861.38;;;4.91;100.00
31346;BME280;21711;49.708;18.568;2024-02-21T06:11:22;97852.72;;;4.91;100.00
31346;BME280;21711;49.708;18.568;2024-02-21T06:13:50;97844.31;;;5.00;100.00
31346;BME280;21711;49.708;18.568;2024-02-21T06:16:17;97856.47;;;5.13;100.00
31346;BME280;21711;49.708;18.568;2024-02-21T06:18:45;97854.59;;;5.33;100.00
31346;BME280;21711;49.708;18.568;2024-02-21T06:21:12;97861.84;;;5.49;100.00
31346;BME280;21711;49.708;18.568;2024-02-21T06:23:40;97859.59;;;5.65;100.00
31346;BME280;21711;49.708;18.568;2024-02-21T06:26:07;97854.03;;;5.85;100.00
31346;BME280;21711;49.708;18.568;2024-02-21T06:28:34;97852.69;;;6.07;100.00
31346;BME280;21711;49.708;18.568;2024-02-21T06:31:02;97859.75;;;6.30;100.00
31346;BME280;21711;49.708;18.568;2024-02-21T06:33:29;97857.44;;;6.45;100.00
31346;BME280;21711;49.708;18.568;2024-02-21T06:35:57;97858.44;;;6.68;100.00
31346;BME280;21711;49.708;18.568;2024-02-21T06:38:24;97865.06;;;6.71;100.00
31346;BME280;21711;49.708;18.568;2024-02-21T06:40:52;97856.06;;;6.55;100.00
31346;BME280;21711;49.708;18.568;2024-02-21T06:43:21;97861.00;;;6.39;100.00
31346;BME280;21711;49.708;18.568;2024-02-21T06:45:49;97863.19;;;6.30;100.00
31346;BME280;21711;49.708;18.568;2024-02-21T06:48:21;97854.28;;;6.20;100.00
31346;BME280;21711;49.708;18.568;2024-02-21T06:50:48;97856.69;;;6.33;100.00
31346;BME280;21711;49.708;18.568;2024-02-21T06:53:16;97854.03;;;6.45;100.00
31346;BME280;21711;49.708;18.568;2024-02-21T06:55:43;97857.44;;;6.45;100.00
31346;BME280;21711;49.708;18.568;2024-02-21T06:58:11;97855.06;;;6.56;100.00
31346;BME280;21711;49.708;18.568;2024-02-21T07:00:40;97852.59;;;6.78;100.00
31346;BME280;21711;49.708;18.568;2024-02-21T07:03:07;97854.66;;;7.05;100.00
31346;BME280;21711;49.708;18.568;2024-02-21T07:05:35;97855.69;;;7.33;100.00
31346;BME280;21711;49.708;18.568;2024-02-21T07:08:03;97859.13;;;7.34;100.00
31346;BME280;21711;49.708;18.568;2024-02-21T07:10:31;97852.84;;;7.35;100.00
31346;BME280;21711;49.708;18.568;2024-02-21T07:12:58;97856.16;;;7.59;100.00
31346;BME280;21711;49.708;18.568;2024-02-21T07:15:26;97851.81;;;7.53;100.00
31346;BME280;21711;49.708;18.568;2024-02-21T07:17:54;97859.41;;;7.67;100.00
31346;BME280;21711;49.708;18.568;2024-02-21T07:20:21;97863.19;;;7.24;100.00
31346;BME280;21711;49.708;18.568;2024-02-21T07:22:49;97870.13;;;7.31;100.00
31346;BME280;21711;49.708;18.568;2024-02-21T07:25:16;97854.69;;;7.34;100.00
31346;BME280;21711;49.708;18.568;2024-02-21T07:27:44;97851.72;;;7.48;100.00
31346;BME280;21711;49.708;18.568;2024-02-21T07:30:12;97855.47;;;7.52;100.00
31346;BME280;21711;49.708;18.568;2024-02-21T07:32:43;97847.34;;;7.36;100.00
31346;BME280;21711;49.708;18.568;2024-02-21T07:35:11;97849.00;;;7.26;100.00
31346;BME280;21711;49.708;18.568;2024-02-21T07:37:39;97847.25;;;7.31;100.00
31346;BME280;21711;49.708;18.568;2024-02-21T07:40:16;97850.88;;;7.42;100.00
31346;BME280;21711;49.708;18.568;2024-02-21T07:42:44;97851.66;;;7.43;100.00
31346;BME280;21711;49.708;18.568;2024-02-21T07:45:17;97847.53;;;7.64;100.00
31346;BME280;21711;49.708;18.568;2024-02-21T07:47:46;97849.38;;;7.63;100.00
31346;BME280;21711;49.708;18.568;2024-02-21T07:50:13;97848.97;;;7.89;100.00
31346;BME280;21711;49.708;18.568;2024-02-21T07:52:41;97837.41;;;8.29;100.00
31346;BME280;21711;49.708;18.568;2024-02-21T07:55:09;97835.41;;;8.37;100.00
31346;BME280;21711;49.708;18.568;2024-02-21T07:57:37;97836.47;;;8.19;100.00
31346;BME280;21711;49.708;18.568;2024-02-21T08:00:06;97840.03;;;8.69;100.00
31346;BME280;21711;49.708;18.568;2024-02-21T08:02:39;97850.25;;;9.10;100.00
31346;BME280;21711;49.708;18.568;2024-02-21T08:05:07;97846.75;;;9.32;100.00
31346;BME280;21711;49.708;18.568;2024-02-21T08:07:34;97833.78;;;8.53;100.00
31346;BME280;21711;49.708;18.568;2024-02-21T08:10:03;97833.41;;;8.66;100.00
31346;BME280;21711;49.708;18.568;2024-02-21T08:12:30;97826.69;;;8.36;100.00
31346;BME280;21711;49.708;18.568;2024-02-21T08:15:00;97824.84;;;8.54;100.00
31346;BME280;21711;49.708;18.568;2024-02-21T08:17:28;97829.44;;;8.24;100.00
31346;BME280;21711;49.708;18.568;2024-02-21T08:19:55;97826.59;;;8.48;100.00
31346;BME280;21711;49.708;18.568;2024-02-21T08:22:23;97822.28;;;8.42;100.00
31346;BME280;21711;49.708;18.568;2024-02-21T08:24:53;97819.22;;;8.50;100.00
31346;BME280;21711;49.708;18.568;2024-02-21T08:27:20;97824.50;;;9.23;100.00
31346;BME280;21711;49.708;18.568;2024-02-21T08:29:48;97819.03;;;9.62;100.00
31346;BME280;21711;49.708;18.568;2024-02-21T08:32:15;97821.31;;;10.98;100.00
31346;BME280;21711;49.708;18.568;2024-02-21T08:34:42;97826.53;;;14.14;93.73
31346;BME280;21711;49.708;18.568;2024-02-21T08:37:10;97822.75;;;14.45;76.36
31346;BME280;21711;49.708;18.568;2024-02-21T08:39:38;97828.56;;;14.47;70.95
31346;BME280;21711;49.708;18.568;2024-02-21T08:42:06;97826.47;;;15.78;64.33
31346;BME280;21711;49.708;18.568;2024-02-21T08:44:33;97822.88;;;17.24;59.97
31346;BME280;21711;49.708;18.568;2024-02-21T08:47:01;97815.97;;;18.32;54.09
31346;BME280;21711;49.708;18.568;2024-02-21T08:49:33;97815.97;;;18.32;54.09
31346;BME280;21711;49.708;18.568;2024-02-21T08:52:02;97823.88;;;20.44;47.02
31346;BME280;21711;49.708;18.568;2024-02-21T08:54:32;97826.31;;;20.28;44.81
31346;BME280;21711;49.708;18.568;2024-02-21T08:57:02;97815.66;;;19.92;45.71
31346;BME280;21711;49.708;18.568;2024-02-21T08:59:30;97821.97;;;21.72;42.36
31346;BME280;21711;49.708;18.568;2024-02-21T09:01:58;97817.75;;;21.96;40.76
31346;BME280;21711;49.708;18.568;2024-02-21T09:04:25;97813.16;;;21.63;40.34
31346;BME280;21711;49.708;18.568;2024-02-21T09:06:52;97818.38;;;21.47;40.82
31346;BME280;21711;49.708;18.568;2024-02-21T09:09:20;97816.41;;;21.22;40.92
31346;BME280;21711;49.708;18.568;2024-02-21T09:11:47;97823.38;;;22.28;39.01
31346;BME280;21711;49.708;18.568;2024-02-21T09:14:14;97818.16;;;21.52;38.50
31346;BME280;21711;49.708;18.568;2024-02-21T09:16:42;97808.22;;;20.67;39.01
31346;BME280;21711;49.708;18.568;2024-02-21T09:19:11;97818.94;;;21.74;38.69
31346;BME280;21711;49.708;18.568;2024-02-21T09:21:38;97808.31;;;19.71;41.46
31346;BME280;21711;49.708;18.568;2024-02-21T09:24:06;97806.66;;;19.88;41.20
31346;BME280;21711;49.708;18.568;2024-02-21T09:26:34;97809.75;;;20.77;40.62
31346;BME280;21711;49.708;18.568;2024-02-21T09:29:01;97807.53;;;20.19;40.67
31346;BME280;21711;49.708;18.568;2024-02-21T09:31:29;97811.81;;;21.57;37.53
31346;BME280;21711;49.708;18.568;2024-02-21T09:33:56;97798.63;;;21.30;38.30
31346;BME280;21711;49.708;18.568;2024-02-21T09:36:24;97806.88;;;22.67;35.65
31346;BME280;21711;49.708;18.568;2024-02-21T09:38:51;97804.31;;;22.58;35.25
31346;BME280;21711;49.708;18.568;2024-02-21T09:41:26;97809.50;;;23.33;35.18
31346;BME280;21711;49.708;18.568;2024-02-21T09:43:54;97799.44;;;21.43;35.57
31346;BME280;21711;49.708;18.568;2024-02-21T09:47:30;97806.09;;;22.17;35.86
31346;BME280;21711;49.708;18.568;2024-02-21T09:49:41;97811.41;;;24.42;32.16
31346;BME280;21711;49.708;18.568;2024-02-21T09:52:10;97808.59;;;23.29;33.14
31346;BME280;21711;49.708;18.568;2024-02-21T09:54:41;97801.66;;;19.87;37.93
31346;BME280;21711;49.708;18.568;2024-02-21T09:57:12;97789.28;;;19.47;39.19
31346;BME280;21711;49.708;18.568;2024-02-21T09:59:40;97782.13;;;17.18;42.63
31346;BME280;21711;49.708;18.568;2024-02-21T10:02:10;97790.25;;;16.76;46.64
31346;BME280;21711;49.708;18.568;2024-02-21T10:04:42;97778.72;;;16.52;44.90
31346;BME280;21711;49.708;18.568;2024-02-21T10:07:10;97779.91;;;16.97;45.59
31346;BME280;21711;49.708;18.568;2024-02-21T10:09:38;97771.88;;;16.97;46.97
31346;BME280;21711;49.708;18.568;2024-02-21T10:12:09;97771.78;;;16.51;46.62
31346;BME280;21711;49.708;18.568;2024-02-21T10:14:38;97764.84;;;17.01;44.39
31346;BME280;21711;49.708;18.568;2024-02-21T10:17:06;97771.25;;;16.77;47.12
31346;BME280;21711;49.708;18.568;2024-02-21T10:19:38;97765.75;;;15.89;48.60
31346;BME280;21711;49.708;18.568;2024-02-21T10:22:08;97759.03;;;15.92;47.90
31346;BME280;21711;49.708;18.568;2024-02-21T10:24:37;97758.00;;;14.93;50.92
31346;BME280;21711;49.708;18.568;2024-02-21T10:27:11;97750.72;;;14.36;54.85
31346;BME280;21711;49.708;18.568;2024-02-21T10:29:40;97748.66;;;13.84;54.49
31346;BME280;21711;49.708;18.568;2024-02-21T10:32:13;97747.06;;;13.83;57.66
31346;BME280;21711;49.708;18.568;2024-02-21T10:34:42;97736.41;;;13.29;56.58
31346;BME280;21711;49.708;18.568;2024-02-21T10:37:11;97736.34;;;13.69;58.26
31346;BME280;21711;49.708;18.568;2024-02-21T10:39:41;97735.50;;;13.39;60.35
31346;BME280;21711;49.708;18.568;2024-02-21T10:42:11;97742.63;;;13.49;60.36
31346;BME280;21711;49.708;18.568;2024-02-21T10:44:41;97735.53;;;13.68;60.32
31346;BME280;21711;49.708;18.568;2024-02-21T10:47:11;97732.19;;;12.83;60.72
31346;BME280;21711;49.708;18.568;2024-02-21T10:49:45;97734.63;;;12.79;60.87
31346;BME280;21711;49.708;18.568;2024-02-21T10:55:04;97728.19;;;12.40;62.79
31346;BME280;21711;49.708;18.568;2024-02-21T10:57:37;97730.41;;;12.22;66.65
31346;BME280;21711;49.708;18.568;2024-02-21T11:00:07;97720.47;;;11.62;66.12
31346;BME280;21711;49.708;18.568;2024-02-21T11:02:40;97727.41;;;11.22;68.30
31346;BME280;21711;49.708;18.568;2024-02-21T11:05:09;97716.53;;;11.02;66.91
31346;BME280;21711;49.708;18.568;2024-02-21T11:07:37;97716.81;;;10.90;69.45
31346;BME280;21711;49.708;18.568;2024-02-21T11:10:06;97724.97;;;10.73;69.00
31346;BME280;21711;49.708;18.568;2024-02-21T11:12:48;97714.34;;;10.52;71.19
31346;BME280;21711;49.708;18.568;2024-02-21T11:15:15;97705.13;;;10.65;72.90
31346;BME280;21711;49.708;18.568;2024-02-21T11:17:42;97693.22;;;10.63;70.05
31346;BME280;21711;49.708;18.568;2024-02-21T11:20:38;97696.16;;;10.82;69.84
31346;BME280;21711;49.708;18.568;2024-02-21T11:23:05;97701.97;;;11.15;67.83
31346;BME280;21711;49.708;18.568;2024-02-21T11:25:34;97692.72;;;11.23;70.54
31346;BME280;21711;49.708;18.568;2024-02-21T11:28:05;97694.81;;;10.95;70.16
31346;BME280;21711;49.708;18.568;2024-02-21T11:30:37;97691.16;;;11.07;67.64
31346;BME280;21711;49.708;18.568;2024-02-21T11:33:12;97687.13;;;11.35;68.85
31346;BME280;21711;49.708;18.568;2024-02-21T11:35:39;97697.50;;;11.21;70.65
31346;BME280;21711;49.708;18.568;2024-02-21T11:38:13;97692.97;;;10.75;73.72
31346;BME280;21711;49.708;18.568;2024-02-21T11:40:46;97683.19;;;10.75;69.53
31346;BME280;21711;49.708;18.568;2024-02-21T11:43:15;97686.38;;;10.88;72.58
31346;BME280;21711;49.708;18.568;2024-02-21T11:45:43;97672.53;;;10.34;73.88
31346;BME280;21711;49.708;18.568;2024-02-21T11:48:11;97681.47;;;10.27;74.99
31346;BME280;21711;49.708;18.568;2024-02-21T11:50:38;97679.03;;;10.10;76.37
31346;BME280;21711;49.708;18.568;2024-02-21T11:53:07;97681.16;;;10.08;80.20
31346;BME280;21711;49.708;18.568;2024-02-21T11:55:34;97670.50;;;9.93;80.61
31346;BME280;21711;49.708;18.568;2024-02-21T11:58:02;97671.78;;;9.80;85.96
31346;BME280;21711;49.708;18.568;2024-02-21T12:00:31;97679.56;;;9.54;88.44
31346;BME280;21711;49.708;18.568;2024-02-21T12:02:59;97664.09;;;9.73;89.84
31346;BME280;21711;49.708;18.568;2024-02-21T12:05:29;97658.31;;;9.81;89.30
31346;BME280;21711;49.708;18.568;2024-02-21T12:07:57;97666.97;;;9.71;90.66
31346;BME280;21711;49.708;18.568;2024-02-21T12:10:28;97660.50;;;9.46;93.97
31346;BME280;21711;49.708;18.568;2024-02-21T12:13:08;97652.00;;;8.96;97.31
31346;BME280;21711;49.708;18.568;2024-02-21T12:15:38;97654.03;;;8.56;100.00
31346;BME280;21711;49.708;18.568;2024-02-21T12:18:06;97660.69;;;8.64;100.00
31346;BME280;21711;49.708;18.568;2024-02-21T12:20:33;97663.16;;;8.76;100.00
31346;BME280;21711;49.708;18.568;2024-02-21T12:23:03;97658.72;;;9.14;100.00
31346;BME280;21711;49.708;18.568;2024-02-21T12:25:31;97660.41;;;8.93;100.00
31346;BME280;21711;49.708;18.568;2024-02-21T12:27:59;97660.00;;;9.06;100.00
31346;BME280;21711;49.708;18.568;2024-02-21T12:30:27;97646.59;;;9.13;100.00
31346;BME280;21711;49.708;18.568;2024-02-21T12:32:55;97653.38;;;9.04;100.00
31346;BME280;21711;49.708;18.568;2024-02-21T12:35:23;97650.84;;;9.19;100.00
31346;BME280;21711;49.708;18.568;2024-02-21T12:37:50;97650.53;;;9.11;100.00
31346;BME280;21711;49.708;18.568;2024-02-21T12:40:18;97650.84;;;9.19;100.00
31346;BME280;21711;49.708;18.568;2024-02-21T12:42:46;97642.84;;;9.09;100.00
31346;BME280;21711;49.708;18.568;2024-02-21T12:45:13;97638.47;;;9.25;100.00
31346;BME280;21711;49.708;18.568;2024-02-21T12:47:43;97638.50;;;9.30;100.00
31346;BME280;21711;49.708;18.568;2024-02-21T12:50:10;97637.50;;;9.37;100.00
31346;BME280;21711;49.708;18.568;2024-02-21T12:52:38;97635.41;;;9.44;100.00
31346;BME280;21711;49.708;18.568;2024-02-21T12:55:06;97633.84;;;9.43;100.00
31346;BME280;21711;49.708;18.568;2024-02-21T12:57:34;97624.38;;;9.52;100.00
31346;BME280;21711;49.708;18.568;2024-02-21T13:00:01;97620.75;;;9.69;100.00
31346;BME280;21711;49.708;18.568;2024-02-21T13:02:29;97618.25;;;9.41;99.34